createdAt,value
2023-04-22T00:00:22.071Z,28.83
2023-04-22T00:01:22.142Z,28.84
2023-04-22T00:02:22.238Z,28.82
2023-04-22T00:03:22.538Z,28.87
2023-04-22T00:04:24.165Z,28.83
2023-04-22T00:05:22.437Z,28.86
2023-04-22T00:06:22.454Z,28.83
2023-04-22T00:07:22.502Z,28.85
2023-04-22T00:08:22.572Z,28.82
2023-04-22T00:09:22.643Z,28.83
2023-04-22T00:10:22.659Z,28.82
2023-04-22T00:11:22.721Z,28.83
2023-04-22T00:12:22.799Z,28.79
2023-04-22T00:13:22.855Z,28.82
2023-04-22T00:14:22.907Z,28.80
2023-04-22T00:15:22.963Z,28.79
2023-04-22T00:16:23.109Z,28.80
2023-04-22T00:17:23.107Z,28.81
2023-04-22T00:18:23.134Z,28.81
2023-04-22T00:19:23.184Z,28.81
2023-04-22T00:20:23.258Z,28.79
2023-04-22T00:21:23.325Z,28.79
2023-04-22T00:22:23.377Z,28.78
2023-04-22T00:23:24.334Z,28.80
2023-04-22T00:24:23.466Z,28.79
2023-04-22T00:25:23.529Z,28.80
2023-04-22T00:26:23.621Z,28.77
2023-04-22T00:27:23.644Z,28.79
2023-04-22T00:28:23.730Z,28.76
2023-04-22T00:29:23.783Z,28.80
2023-04-22T00:30:23.832Z,28.80
2023-04-22T00:31:23.947Z,28.76
2023-04-22T00:32:23.982Z,28.76
2023-04-22T00:33:24.020Z,28.79
2023-04-22T00:34:24.059Z,28.78
2023-04-22T00:35:24.130Z,28.79
2023-04-22T00:36:24.190Z,28.77
2023-04-22T00:37:24.245Z,28.76
2023-04-22T00:38:24.314Z,28.77
2023-04-22T00:39:24.344Z,28.74
2023-04-22T00:40:24.476Z,28.74
2023-04-22T00:41:24.491Z,28.73
2023-04-22T00:42:24.534Z,28.74
2023-04-22T00:43:25.371Z,28.75
2023-04-22T00:44:24.683Z,28.77
2023-04-22T00:45:24.713Z,28.76
2023-04-22T00:46:24.833Z,28.74
2023-04-22T00:47:24.877Z,28.73
2023-04-22T00:48:26.852Z,28.72
2023-04-22T00:49:24.892Z,28.71
2023-04-22T00:50:24.902Z,28.71
2023-04-22T00:51:24.882Z,28.73
2023-04-22T00:52:24.892Z,28.69
2023-04-22T00:53:24.862Z,28.75
2023-04-22T00:54:24.865Z,28.71
2023-04-22T00:55:24.871Z,28.70
2023-04-22T00:56:24.831Z,28.70
2023-04-22T00:57:24.845Z,28.71
2023-04-22T00:58:24.815Z,28.72
2023-04-22T00:59:24.812Z,28.68
2023-04-22T01:00:24.834Z,28.71
2023-04-22T01:01:24.997Z,28.72
2023-04-22T01:02:24.957Z,28.71
2023-04-22T01:03:24.931Z,28.68
2023-04-22T01:04:24.798Z,28.68
2023-04-22T01:05:24.850Z,28.68
2023-04-22T01:06:24.801Z,28.66
2023-04-22T01:07:24.773Z,28.68
2023-04-22T01:08:24.768Z,28.70
2023-04-22T01:09:24.780Z,28.68
2023-04-22T01:10:24.777Z,28.68
2023-04-22T01:11:24.776Z,28.68
2023-04-22T01:12:24.752Z,28.71
2023-04-22T01:13:24.796Z,28.71
2023-04-22T01:14:24.831Z,28.66
2023-04-22T01:15:24.889Z,28.65
2023-04-22T01:16:25.021Z,28.69
2023-04-22T01:17:25.133Z,28.67
2023-04-22T01:18:25.092Z,28.65
2023-04-22T01:19:25.162Z,28.67
2023-04-22T01:20:25.231Z,28.64
2023-04-22T01:21:25.291Z,28.65
2023-04-22T01:22:25.306Z,28.65
2023-04-22T01:23:25.376Z,28.64
2023-04-22T01:24:25.451Z,28.66
2023-04-22T01:25:25.531Z,28.67
2023-04-22T01:26:25.566Z,28.65
2023-04-22T01:27:25.639Z,28.64
2023-04-22T01:28:25.692Z,28.63
2023-04-22T01:29:25.745Z,28.64
2023-04-22T01:30:25.826Z,28.65
2023-04-22T01:31:25.917Z,28.67
2023-04-22T01:32:26.030Z,28.62
2023-04-22T01:33:25.976Z,28.62
2023-04-22T01:34:26.054Z,28.64
2023-04-22T01:35:26.102Z,28.67
2023-04-22T01:36:26.207Z,28.62
2023-04-22T01:37:26.222Z,28.63
2023-04-22T01:38:26.287Z,28.63
2023-04-22T01:39:26.284Z,28.61
2023-04-22T01:40:26.283Z,28.63
2023-04-22T01:41:26.284Z,28.62
2023-04-22T01:42:26.326Z,28.65
2023-04-22T01:43:26.331Z,28.61
2023-04-22T01:44:26.367Z,28.64
2023-04-22T01:45:26.440Z,28.63
2023-04-22T01:46:26.608Z,28.63
2023-04-22T01:47:26.537Z,28.63
2023-04-22T01:48:26.626Z,28.64
2023-04-22T01:49:26.685Z,28.63
2023-04-22T01:50:26.768Z,28.60
2023-04-22T01:51:26.784Z,28.61
2023-04-22T01:52:26.850Z,28.62
2023-04-22T01:53:26.920Z,28.63
2023-04-22T01:54:26.971Z,28.63
2023-04-22T01:55:27.038Z,28.61
2023-04-22T01:56:27.074Z,28.62
2023-04-22T01:57:27.130Z,28.60
2023-04-22T01:58:27.187Z,28.61
2023-04-22T01:59:27.239Z,28.62
2023-04-22T02:00:27.289Z,28.61
2023-04-22T02:01:27.420Z,28.60
2023-04-22T02:02:27.521Z,28.62
2023-04-22T02:03:27.604Z,28.62
2023-04-22T02:04:27.553Z,28.63
2023-04-22T02:05:27.592Z,28.62
2023-04-22T02:06:27.661Z,28.62
2023-04-22T02:07:27.687Z,28.62
2023-04-22T02:08:27.860Z,28.59
2023-04-22T02:09:27.825Z,28.59
2023-04-22T02:10:27.916Z,28.58
2023-04-22T02:11:28.451Z,28.62
2023-04-22T02:12:27.997Z,28.61
2023-04-22T02:13:28.100Z,28.60
2023-04-22T02:14:28.117Z,28.60
2023-04-22T02:15:28.250Z,28.59
2023-04-22T02:16:28.299Z,28.58
2023-04-22T02:17:28.325Z,28.57
2023-04-22T02:18:28.387Z,28.61
2023-04-22T02:19:28.443Z,28.58
2023-04-22T02:20:28.519Z,28.61
2023-04-22T02:21:28.587Z,28.58
2023-04-22T02:22:28.611Z,28.60
2023-04-22T02:23:28.689Z,28.61
2023-04-22T02:24:28.734Z,28.59
2023-04-22T02:25:28.804Z,28.57
2023-04-22T02:26:28.924Z,28.59
2023-04-22T02:27:28.914Z,28.59
2023-04-22T02:28:28.982Z,28.62
2023-04-22T02:29:29.018Z,28.60
2023-04-22T02:30:29.089Z,28.60
2023-04-22T02:31:29.250Z,28.60
2023-04-22T02:32:29.237Z,28.61
2023-04-22T02:33:29.283Z,28.58
2023-04-22T02:34:29.336Z,28.61
2023-04-22T02:35:29.453Z,28.59
2023-04-22T02:36:29.451Z,28.60
2023-04-22T02:37:29.508Z,28.57
2023-04-22T02:38:29.570Z,28.59
2023-04-22T02:39:29.611Z,28.62
2023-04-22T02:40:29.641Z,28.58
2023-04-22T02:41:29.674Z,28.60
2023-04-22T02:42:29.735Z,28.58
2023-04-22T02:43:29.789Z,28.57
2023-04-22T02:44:29.838Z,28.56
2023-04-22T02:45:29.887Z,28.59
2023-04-22T02:46:29.972Z,28.57
2023-04-22T02:47:29.999Z,28.56
2023-04-22T02:48:29.976Z,28.55
2023-04-22T02:49:30.037Z,28.59
2023-04-22T02:50:30.096Z,28.62
2023-04-22T02:51:30.129Z,28.57
2023-04-22T02:52:30.192Z,28.60
2023-04-22T02:53:30.266Z,28.59
2023-04-22T02:54:30.318Z,28.59
2023-04-22T02:55:30.367Z,28.55
2023-04-22T02:56:30.430Z,28.57
2023-04-22T02:57:30.497Z,28.58
2023-04-22T02:58:30.530Z,28.57
2023-04-22T02:59:30.574Z,28.58
2023-04-22T03:00:30.674Z,28.58
2023-04-22T03:01:30.707Z,28.56
2023-04-22T03:02:30.877Z,28.57
2023-04-22T03:03:30.940Z,28.55
2023-04-22T03:04:30.881Z,28.57
2023-04-22T03:05:30.830Z,28.54
2023-04-22T03:06:30.898Z,28.54
2023-04-22T03:07:30.927Z,28.57
2023-04-22T03:08:30.960Z,28.55
2023-04-22T03:09:30.993Z,28.60
2023-04-22T03:10:31.093Z,28.57
2023-04-22T03:11:31.109Z,28.56
2023-04-22T03:12:31.111Z,28.56
2023-04-22T03:13:31.161Z,28.54
2023-04-22T03:14:31.199Z,28.55
2023-04-22T03:15:31.240Z,28.56
2023-04-22T03:16:31.297Z,28.56
2023-04-22T03:17:31.323Z,28.56
2023-04-22T03:18:31.276Z,28.54
2023-04-22T03:19:31.347Z,28.60
2023-04-22T03:20:31.367Z,28.57
2023-04-22T03:21:31.384Z,28.56
2023-04-22T03:22:31.407Z,28.55
2023-04-22T03:23:31.456Z,28.56
2023-04-22T03:24:31.499Z,28.55
2023-04-22T03:25:31.536Z,28.57
2023-04-22T03:26:31.534Z,28.56
2023-04-22T03:27:31.533Z,28.55
2023-04-22T03:28:31.552Z,28.55
2023-04-22T03:29:31.614Z,28.55
2023-04-22T03:30:31.642Z,28.54
2023-04-22T03:31:31.665Z,28.57
2023-04-22T03:32:31.738Z,28.52
2023-04-22T03:33:31.697Z,28.52
2023-04-22T03:34:31.745Z,28.53
2023-04-22T03:35:31.760Z,28.52
2023-04-22T03:36:31.797Z,28.52
2023-04-22T03:37:31.843Z,28.53
2023-04-22T03:38:31.888Z,28.55
2023-04-22T03:39:31.881Z,28.54
2023-04-22T03:40:31.931Z,28.51
2023-04-22T03:41:31.954Z,28.50
2023-04-22T03:42:31.969Z,28.51
2023-04-22T03:43:31.950Z,28.51
2023-04-22T03:44:31.978Z,28.54
2023-04-22T03:45:32.076Z,28.54
2023-04-22T03:46:32.115Z,28.52
2023-04-22T03:47:32.058Z,28.52
2023-04-22T03:48:32.088Z,28.51
2023-04-22T03:49:32.067Z,28.49
2023-04-22T03:50:32.102Z,28.49
2023-04-22T03:51:32.140Z,28.51
2023-04-22T03:52:32.174Z,28.50
2023-04-22T03:53:32.163Z,28.50
2023-04-22T03:54:32.210Z,28.52
2023-04-22T03:55:32.254Z,28.53
2023-04-22T03:56:32.335Z,28.50
2023-04-22T03:57:32.353Z,28.55
2023-04-22T03:58:32.336Z,28.51
2023-04-22T03:59:32.358Z,28.47
2023-04-22T04:00:32.414Z,28.49
2023-04-22T04:01:32.444Z,28.55
2023-04-22T04:02:32.563Z,28.51
2023-04-22T04:03:32.784Z,28.53
2023-04-22T04:04:33.169Z,28.50
2023-04-22T04:05:32.649Z,28.52
2023-04-22T04:06:32.543Z,28.55
2023-04-22T04:07:32.568Z,28.53
2023-04-22T04:08:32.529Z,28.51
2023-04-22T04:09:32.580Z,28.49
2023-04-22T04:10:32.600Z,28.48
2023-04-22T04:11:32.649Z,28.48
2023-04-22T04:12:32.662Z,28.53
2023-04-22T04:13:32.741Z,28.51
2023-04-22T04:14:32.748Z,28.55
2023-04-22T04:15:32.835Z,28.51
2023-04-22T04:16:32.883Z,28.49
2023-04-22T04:17:32.841Z,28.51
2023-04-22T04:18:34.494Z,28.47
2023-04-22T04:19:32.866Z,28.52
2023-04-22T04:20:32.895Z,28.48
2023-04-22T04:21:32.931Z,28.48
2023-04-22T04:22:32.962Z,28.49
2023-04-22T04:23:32.998Z,28.51
2023-04-22T04:24:33.009Z,28.49
2023-04-22T04:25:33.020Z,28.50
2023-04-22T04:26:33.046Z,28.53
2023-04-22T04:27:33.042Z,28.52
2023-04-22T04:28:33.134Z,28.46
2023-04-22T04:29:33.098Z,28.47
2023-04-22T04:30:33.660Z,28.48
2023-04-22T04:31:33.164Z,28.47
2023-04-22T04:32:33.196Z,28.45
2023-04-22T04:33:33.227Z,28.50
2023-04-22T04:34:33.234Z,28.48
2023-04-22T04:35:33.243Z,28.48
2023-04-22T04:36:33.268Z,28.46
2023-04-22T04:37:33.331Z,28.46
2023-04-22T04:38:33.361Z,28.52
2023-04-22T04:39:33.401Z,28.50
2023-04-22T04:40:33.421Z,28.50
2023-04-22T04:41:33.450Z,28.47
2023-04-22T04:42:33.458Z,28.50
2023-04-22T04:43:33.515Z,28.46
2023-04-22T04:44:33.515Z,28.49
2023-04-22T04:45:33.578Z,28.45
2023-04-22T04:46:33.629Z,28.46
2023-04-22T04:47:33.635Z,28.46
2023-04-22T04:48:33.654Z,28.53
2023-04-22T04:49:33.627Z,28.51
2023-04-22T04:50:33.660Z,28.48
2023-04-22T04:51:33.688Z,28.46
2023-04-22T04:52:33.728Z,28.48
2023-04-22T04:53:33.739Z,28.51
2023-04-22T04:54:33.783Z,28.50
2023-04-22T04:55:33.803Z,28.47
2023-04-22T04:56:33.812Z,28.48
2023-04-22T04:57:33.859Z,28.45
2023-04-22T04:58:33.876Z,28.46
2023-04-22T04:59:33.938Z,28.46
2023-04-22T05:00:33.908Z,28.42
2023-04-22T05:01:33.970Z,28.48
2023-04-22T05:02:34.094Z,28.45
2023-04-22T05:03:34.129Z,28.45
2023-04-22T05:04:34.205Z,28.44
2023-04-22T05:05:34.028Z,28.43
2023-04-22T05:06:34.029Z,28.47
2023-04-22T05:07:34.040Z,28.45
2023-04-22T05:08:34.083Z,28.45
2023-04-22T05:09:34.033Z,28.43
2023-04-22T05:10:34.094Z,28.46
2023-04-22T05:11:34.131Z,28.46
2023-04-22T05:12:34.126Z,28.44
2023-04-22T05:13:34.145Z,28.50
2023-04-22T05:14:34.154Z,28.43
2023-04-22T05:15:34.160Z,28.41
2023-04-22T05:16:34.218Z,28.41
2023-04-22T05:17:34.223Z,28.42
2023-04-22T05:18:34.170Z,28.45
2023-04-22T05:19:34.204Z,28.42
2023-04-22T05:20:36.008Z,28.43
2023-04-22T05:21:34.191Z,28.44
2023-04-22T05:22:34.206Z,28.42
2023-04-22T05:23:34.223Z,28.41
2023-04-22T05:24:34.261Z,28.41
2023-04-22T05:25:34.289Z,28.40
2023-04-22T05:26:34.345Z,28.41
2023-04-22T05:27:34.348Z,28.42
2023-04-22T05:28:34.385Z,28.40
2023-04-22T05:29:34.430Z,28.38
2023-04-22T05:30:34.424Z,28.40
2023-04-22T05:31:34.493Z,28.38
2023-04-22T05:32:34.496Z,28.38
2023-04-22T05:33:34.486Z,28.37
2023-04-22T05:34:34.480Z,28.39
2023-04-22T05:35:34.496Z,28.40
2023-04-22T05:36:34.523Z,28.40
2023-04-22T05:37:34.526Z,28.39
2023-04-22T05:38:34.532Z,28.38
2023-04-22T05:39:34.495Z,28.37
2023-04-22T05:40:34.523Z,28.37
2023-04-22T05:41:34.615Z,28.37
2023-04-22T05:42:34.599Z,28.37
2023-04-22T05:43:34.625Z,28.36
2023-04-22T05:44:34.690Z,28.36
2023-04-22T05:45:34.724Z,28.36
2023-04-22T05:46:34.764Z,28.36
2023-04-22T05:47:34.788Z,28.37
2023-04-22T05:48:34.804Z,28.37
2023-04-22T05:49:34.834Z,28.37
2023-04-22T05:50:34.871Z,28.33
2023-04-22T05:51:34.952Z,28.34
2023-04-22T05:52:34.955Z,28.33
2023-04-22T05:53:34.951Z,28.33
2023-04-22T05:54:34.977Z,28.34
2023-04-22T05:55:35.003Z,28.33
2023-04-22T05:56:35.085Z,28.33
2023-04-22T05:57:35.112Z,28.32
2023-04-22T05:58:35.171Z,28.32
2023-04-22T05:59:35.254Z,28.33
2023-04-22T06:00:35.271Z,28.34
2023-04-22T06:01:35.280Z,28.32
2023-04-22T06:02:35.416Z,28.31
2023-04-22T06:03:35.470Z,28.33
2023-04-22T06:04:37.528Z,28.33
2023-04-22T06:05:35.697Z,28.31
2023-04-22T06:06:35.681Z,28.30
2023-04-22T06:07:35.691Z,28.31
2023-04-22T06:08:35.698Z,28.31
2023-04-22T06:09:35.768Z,28.31
2023-04-22T06:10:35.775Z,28.33
2023-04-22T06:11:35.846Z,28.31
2023-04-22T06:12:35.861Z,28.30
2023-04-22T06:13:35.844Z,28.31
2023-04-22T06:14:35.846Z,28.31
2023-04-22T06:15:35.916Z,28.31
2023-04-22T06:16:35.908Z,28.29
2023-04-22T06:17:35.934Z,28.31
2023-04-22T06:18:37.172Z,28.30
2023-04-22T06:19:35.940Z,28.30
2023-04-22T06:20:35.948Z,28.31
2023-04-22T06:21:35.962Z,28.30
2023-04-22T06:22:35.979Z,28.31
2023-04-22T06:23:36.066Z,28.30
2023-04-22T06:24:36.093Z,28.29
2023-04-22T06:25:36.029Z,28.29
2023-04-22T06:26:36.056Z,28.28
2023-04-22T06:27:36.061Z,28.28
2023-04-22T06:28:36.066Z,28.26
2023-04-22T06:29:36.093Z,28.28
2023-04-22T06:30:36.062Z,28.27
2023-04-22T06:31:36.136Z,28.28
2023-04-22T06:32:36.143Z,28.25
2023-04-22T06:33:36.131Z,28.28
2023-04-22T06:34:36.157Z,28.26
2023-04-22T06:35:36.154Z,28.28
2023-04-22T06:36:36.169Z,28.28
2023-04-22T06:37:36.216Z,28.29
2023-04-22T06:38:36.189Z,28.28
2023-04-22T06:39:36.208Z,28.26
2023-04-22T06:40:36.202Z,28.27
2023-04-22T06:41:36.244Z,28.27
2023-04-22T06:42:36.219Z,28.26
2023-04-22T06:43:36.283Z,28.25
2023-04-22T06:44:36.301Z,28.26
2023-04-22T06:45:36.320Z,28.25
2023-04-22T06:46:36.396Z,28.24
2023-04-22T06:47:36.425Z,28.25
2023-04-22T06:48:36.428Z,28.26
2023-04-22T06:49:36.447Z,28.25
2023-04-22T06:50:36.505Z,28.25
2023-04-22T06:51:36.493Z,28.25
2023-04-22T06:52:36.523Z,28.24
2023-04-22T06:53:36.499Z,28.25
2023-04-22T06:54:36.522Z,28.23
2023-04-22T06:55:36.544Z,28.24
2023-04-22T06:56:36.613Z,28.23
2023-04-22T06:57:36.638Z,28.22
2023-04-22T06:58:36.653Z,28.24
2023-04-22T06:59:36.952Z,28.24
2023-04-22T07:00:36.715Z,28.24
2023-04-22T07:01:36.791Z,28.23
2023-04-22T07:02:36.867Z,28.23
2023-04-22T07:03:36.958Z,28.24
2023-04-22T07:04:36.890Z,28.22
2023-04-22T07:05:39.129Z,28.22
2023-04-22T07:06:36.864Z,28.23
2023-04-22T07:07:36.826Z,28.23
2023-04-22T07:08:36.831Z,28.22
2023-04-22T07:09:36.990Z,28.21
2023-04-22T07:10:36.807Z,28.21
2023-04-22T07:11:36.787Z,28.21
2023-04-22T07:12:36.808Z,28.20
2023-04-22T07:13:36.783Z,28.22
2023-04-22T07:14:36.783Z,28.21
2023-04-22T07:15:36.742Z,28.21
2023-04-22T07:16:36.833Z,28.21
2023-04-22T07:17:36.753Z,28.21
2023-04-22T07:18:36.809Z,28.21
2023-04-22T07:19:36.876Z,28.20
2023-04-22T07:20:36.718Z,28.21
2023-04-22T07:21:36.703Z,28.20
2023-04-22T07:22:36.723Z,28.19
2023-04-22T07:23:36.683Z,28.20
2023-04-22T07:24:36.726Z,28.19
2023-04-22T07:25:36.703Z,28.19
2023-04-22T07:26:36.688Z,28.19
2023-04-22T07:27:37.131Z,28.18
2023-04-22T07:28:36.667Z,28.18
2023-04-22T07:29:36.806Z,28.20
2023-04-22T07:30:36.671Z,28.20
2023-04-22T07:31:36.776Z,28.18
2023-04-22T07:32:36.668Z,28.20
2023-04-22T07:33:36.639Z,28.18
2023-04-22T07:34:36.630Z,28.19
2023-04-22T07:35:36.612Z,28.18
2023-04-22T07:36:36.639Z,28.18
2023-04-22T07:37:36.611Z,28.17
2023-04-22T07:38:36.599Z,28.16
2023-04-22T07:39:36.620Z,28.18
2023-04-22T07:40:36.594Z,28.16
2023-04-22T07:41:36.575Z,28.17
2023-04-22T07:42:36.565Z,28.18
2023-04-22T07:43:36.552Z,28.16
2023-04-22T07:44:38.830Z,28.16
2023-04-22T07:45:36.571Z,28.17
2023-04-22T07:46:36.529Z,28.15
2023-04-22T07:47:36.576Z,28.17
2023-04-22T07:48:36.547Z,28.16
2023-04-22T07:49:36.587Z,28.16
2023-04-22T07:50:38.608Z,28.15
2023-04-22T07:51:36.548Z,28.15
2023-04-22T07:52:36.474Z,28.14
2023-04-22T07:53:36.536Z,28.15
2023-04-22T07:54:36.562Z,28.12
2023-04-22T07:55:36.569Z,28.14
2023-04-22T07:56:36.580Z,28.13
2023-04-22T07:57:36.552Z,28.16
2023-04-22T07:58:36.598Z,28.13
2023-04-22T07:59:36.683Z,28.13
2023-04-22T08:00:36.643Z,28.12
2023-04-22T08:01:36.638Z,28.11
2023-04-22T08:02:36.767Z,28.12
2023-04-22T08:03:36.893Z,28.11
2023-04-22T08:04:36.783Z,28.11
2023-04-22T08:05:36.638Z,28.11
2023-04-22T08:06:36.688Z,28.11
2023-04-22T08:07:36.646Z,28.10
2023-04-22T08:08:36.715Z,28.12
2023-04-22T08:09:36.793Z,28.10
2023-04-22T08:10:36.739Z,28.10
2023-04-22T08:11:36.743Z,28.10
2023-04-22T08:12:36.760Z,28.08
2023-04-22T08:13:36.776Z,28.08
2023-04-22T08:14:36.764Z,28.06
2023-04-22T08:15:36.836Z,28.07
2023-04-22T08:16:36.848Z,28.06
2023-04-22T08:17:36.873Z,28.06
2023-04-22T08:18:36.828Z,28.06
2023-04-22T08:19:36.959Z,28.04
2023-04-22T08:20:36.872Z,28.05
2023-04-22T08:21:36.889Z,28.06
2023-04-22T08:22:36.991Z,28.03
2023-04-22T08:23:36.985Z,28.04
2023-04-22T08:24:37.033Z,28.03
2023-04-22T08:25:37.079Z,28.04
2023-04-22T08:26:37.211Z,28.03
2023-04-22T08:27:37.201Z,28.02
2023-04-22T08:28:37.262Z,28.03
2023-04-22T08:29:37.395Z,28.03
2023-04-22T08:30:37.391Z,28.03
2023-04-22T08:31:37.598Z,28.03
2023-04-22T08:32:37.508Z,28.02
2023-04-22T08:33:37.473Z,28.02
2023-04-22T08:34:37.534Z,28.01
2023-04-22T08:35:37.576Z,28.01
2023-04-22T08:36:37.624Z,28.03
2023-04-22T08:37:37.631Z,28.00
2023-04-22T08:38:37.680Z,28.01
2023-04-22T08:39:37.945Z,28.02
2023-04-22T08:40:37.754Z,28.02
2023-04-22T08:41:37.863Z,28.01
2023-04-22T08:42:37.846Z,28.01
2023-04-22T08:43:37.944Z,28.00
2023-04-22T08:44:37.957Z,28.00
2023-04-22T08:45:38.044Z,27.98
2023-04-22T08:46:38.075Z,28.00
2023-04-22T08:47:38.177Z,28.00
2023-04-22T08:48:38.131Z,27.95
2023-04-22T08:49:38.386Z,27.98
2023-04-22T08:50:38.226Z,27.98
2023-04-22T08:51:38.294Z,27.96
2023-04-22T08:52:38.329Z,27.94
2023-04-22T08:53:38.416Z,27.97
2023-04-22T08:54:38.469Z,27.98
2023-04-22T08:55:38.509Z,27.95
2023-04-22T08:56:38.602Z,27.94
2023-04-22T08:57:38.612Z,27.97
2023-04-22T08:58:38.638Z,27.95
2023-04-22T08:59:38.902Z,27.95
2023-04-22T09:00:38.803Z,27.95
2023-04-22T09:01:38.861Z,27.95
2023-04-22T09:02:38.926Z,27.96
2023-04-22T09:03:39.121Z,27.95
2023-04-22T09:04:39.032Z,27.94
2023-04-22T09:05:39.029Z,27.93
2023-04-22T09:06:39.193Z,27.95
2023-04-22T09:07:39.146Z,27.93
2023-04-22T09:08:39.218Z,27.91
2023-04-22T09:09:39.650Z,27.93
2023-04-22T09:10:39.437Z,27.92
2023-04-22T09:11:39.367Z,27.92
2023-04-22T09:12:39.422Z,27.92
2023-04-22T09:13:39.474Z,27.93
2023-04-22T09:14:39.529Z,27.91
2023-04-22T09:15:39.636Z,27.91
2023-04-22T09:16:39.691Z,27.92
2023-04-22T09:17:39.798Z,27.91
2023-04-22T09:18:39.807Z,27.92
2023-04-22T09:19:40.074Z,27.88
2023-04-22T09:20:39.932Z,27.89
2023-04-22T09:21:39.990Z,27.91
2023-04-22T09:22:40.065Z,27.89
2023-04-22T09:23:40.094Z,27.90
2023-04-22T09:24:40.175Z,27.89
2023-04-22T09:25:40.279Z,27.88
2023-04-22T09:26:40.278Z,27.90
2023-04-22T09:27:40.308Z,27.88
2023-04-22T09:28:40.428Z,27.87
2023-04-22T09:29:40.839Z,27.86
2023-04-22T09:30:40.543Z,27.87
2023-04-22T09:31:40.652Z,27.86
2023-04-22T09:32:40.676Z,27.85
2023-04-22T09:33:40.678Z,27.84
2023-04-22T09:34:40.796Z,27.86
2023-04-22T09:35:40.819Z,27.85
2023-04-22T09:36:40.863Z,27.83
2023-04-22T09:37:48.948Z,27.83
2023-04-22T09:38:41.924Z,27.84
2023-04-22T09:39:41.222Z,27.83
2023-04-22T09:40:40.909Z,27.83
2023-04-22T09:41:40.906Z,27.81
2023-04-22T09:42:40.888Z,27.83
2023-04-22T09:43:40.890Z,27.80
2023-04-22T09:44:40.882Z,27.80
2023-04-22T09:45:40.931Z,27.81
2023-04-22T09:46:40.950Z,27.79
2023-04-22T09:47:41.035Z,27.80
2023-04-22T09:48:41.082Z,27.80
2023-04-22T09:49:41.360Z,27.79
2023-04-22T09:50:41.199Z,27.79
2023-04-22T09:51:41.254Z,27.79
2023-04-22T09:52:41.317Z,27.79
2023-04-22T09:53:41.398Z,27.79
2023-04-22T09:54:41.471Z,27.78
2023-04-22T09:55:41.508Z,27.77
2023-04-22T09:56:41.575Z,27.76
2023-04-22T09:57:41.626Z,27.78
2023-04-22T09:58:41.662Z,27.76
2023-04-22T09:59:41.969Z,27.78
2023-04-22T10:00:41.793Z,27.77
2023-04-22T10:01:42.046Z,27.76
2023-04-22T10:02:42.145Z,27.74
2023-04-22T10:03:42.018Z,27.75
2023-04-22T10:04:42.055Z,27.74
2023-04-22T10:05:42.131Z,27.76
2023-04-22T10:06:42.175Z,27.75
2023-04-22T10:07:42.228Z,27.74
2023-04-22T10:08:42.440Z,27.73
2023-04-22T10:09:42.367Z,27.71
2023-04-22T10:10:42.409Z,27.74
2023-04-22T10:11:42.448Z,27.73
2023-04-22T10:12:42.717Z,27.73
2023-04-22T10:13:42.608Z,27.73
2023-04-22T10:14:42.662Z,27.74
2023-04-22T10:15:42.720Z,27.72
2023-04-22T10:16:42.816Z,27.73
2023-04-22T10:17:42.848Z,27.71
2023-04-22T10:18:42.901Z,27.71
2023-04-22T10:19:43.025Z,27.73
2023-04-22T10:20:43.050Z,27.71
2023-04-22T10:21:43.079Z,27.73
2023-04-22T10:22:43.157Z,27.72
2023-04-22T10:23:43.216Z,27.71
2023-04-22T10:24:43.300Z,27.72
2023-04-22T10:25:43.348Z,27.74
2023-04-22T10:26:43.366Z,27.72
2023-04-22T10:27:43.446Z,27.72
2023-04-22T10:28:43.482Z,27.72
2023-04-22T10:29:43.817Z,27.73
2023-04-22T10:30:43.603Z,27.72
2023-04-22T10:31:43.673Z,27.70
2023-04-22T10:32:43.750Z,27.72
2023-04-22T10:33:43.747Z,27.74
2023-04-22T10:34:43.840Z,27.73
2023-04-22T10:35:43.887Z,27.73
2023-04-22T10:36:43.986Z,27.72
2023-04-22T10:37:44.025Z,27.73
2023-04-22T10:38:44.051Z,27.75
2023-04-22T10:39:44.271Z,27.74
2023-04-22T10:40:44.176Z,27.75
2023-04-22T10:41:44.262Z,27.74
2023-04-22T10:42:44.378Z,27.76
2023-04-22T10:43:44.356Z,27.77
2023-04-22T10:44:44.393Z,27.73
2023-04-22T10:45:44.448Z,27.74
2023-04-22T10:46:44.657Z,27.76
2023-04-22T10:47:44.649Z,27.77
2023-04-22T10:48:44.673Z,27.77
2023-04-22T10:49:44.703Z,27.76
2023-04-22T10:50:44.781Z,27.78
2023-04-22T10:51:44.852Z,27.77
2023-04-22T10:52:44.887Z,27.77
2023-04-22T10:53:44.960Z,27.78
2023-04-22T10:54:45.011Z,27.76
2023-04-22T10:55:45.045Z,27.76
2023-04-22T10:56:51.935Z,27.75
2023-04-22T10:57:46.137Z,27.75
2023-04-22T10:58:45.105Z,27.77
2023-04-22T10:59:45.103Z,27.77
2023-04-22T11:00:53.299Z,27.78
2023-04-22T11:01:46.114Z,27.76
2023-04-22T11:02:45.165Z,27.79
2023-04-22T11:03:45.113Z,27.80
2023-04-22T11:04:45.062Z,27.80
2023-04-22T11:05:45.072Z,27.77
2023-04-22T11:06:45.070Z,27.80
2023-04-22T11:07:45.036Z,27.78
2023-04-22T11:08:45.055Z,27.77
2023-04-22T11:09:45.134Z,27.79
2023-04-22T11:10:45.207Z,27.78
2023-04-22T11:11:45.236Z,27.78
2023-04-22T11:12:45.281Z,27.79
2023-04-22T11:13:45.335Z,27.80
2023-04-22T11:14:45.422Z,27.79
2023-04-22T11:15:45.472Z,27.79
2023-04-22T11:16:45.726Z,27.79
2023-04-22T11:17:45.619Z,27.79
2023-04-22T11:18:45.640Z,27.79
2023-04-22T11:19:45.718Z,27.79
2023-04-22T11:20:45.782Z,27.78
2023-04-22T11:21:45.850Z,27.76
2023-04-22T11:22:45.879Z,27.80
2023-04-22T11:23:45.947Z,27.78
2023-04-22T11:24:46.001Z,27.76
2023-04-22T11:25:46.064Z,27.76
2023-04-22T11:26:46.143Z,27.76
2023-04-22T11:27:46.203Z,27.76
2023-04-22T11:28:46.267Z,27.75
2023-04-22T11:29:46.338Z,27.75
2023-04-22T11:30:46.348Z,27.76
2023-04-22T11:31:46.522Z,27.77
2023-04-22T11:32:46.598Z,27.77
2023-04-22T11:33:48.435Z,27.77
2023-04-22T11:34:46.573Z,27.76
2023-04-22T11:35:46.569Z,27.75
2023-04-22T11:36:46.545Z,27.78
2023-04-22T11:37:46.547Z,27.76
2023-04-22T11:38:46.506Z,27.75
2023-04-22T11:40:05.292Z,27.74
2023-04-22T11:40:47.938Z,27.75
2023-04-22T11:41:46.516Z,27.76
2023-04-22T11:42:46.472Z,27.73
2023-04-22T11:43:46.481Z,27.74
2023-04-22T11:44:46.465Z,27.73
2023-04-22T11:45:46.499Z,27.73
2023-04-22T11:46:46.487Z,27.74
2023-04-22T11:47:46.534Z,27.73
2023-04-22T11:48:46.566Z,27.73
2023-04-22T11:49:47.118Z,27.72
2023-04-22T11:50:46.655Z,27.73
2023-04-22T11:51:46.709Z,27.73
2023-04-22T11:52:46.777Z,27.72
2023-04-22T11:53:46.834Z,27.73
2023-04-22T11:54:46.936Z,27.73
2023-04-22T11:55:46.969Z,27.71
2023-04-22T11:56:47.082Z,27.71
2023-04-22T11:57:47.120Z,27.71
2023-04-22T11:58:47.156Z,27.71
2023-04-22T11:59:47.216Z,27.71
2023-04-22T12:00:47.309Z,27.71
2023-04-22T12:01:47.421Z,27.72
2023-04-22T12:02:47.524Z,27.67
2023-04-22T12:03:47.622Z,27.69
2023-04-22T12:04:47.586Z,27.71
2023-04-22T12:05:47.591Z,27.69
2023-04-22T12:06:47.631Z,27.69
2023-04-22T12:07:47.697Z,27.67
2023-04-22T12:08:47.744Z,27.68
2023-04-22T12:09:47.783Z,27.67
2023-04-22T12:10:47.853Z,27.65
2023-04-22T12:11:47.959Z,27.65
2023-04-22T12:12:47.940Z,27.64
2023-04-22T12:13:47.998Z,27.66
2023-04-22T12:14:48.058Z,27.63
2023-04-22T12:15:48.077Z,27.63
2023-04-22T12:16:48.151Z,27.64
2023-04-22T12:17:48.280Z,27.62
2023-04-22T12:18:48.262Z,27.64
2023-04-22T12:19:48.290Z,27.59
2023-04-22T12:20:48.337Z,27.61
2023-04-22T12:21:48.412Z,27.58
2023-04-22T12:22:48.455Z,27.59
2023-04-22T12:23:48.542Z,27.57
2023-04-22T12:24:48.563Z,27.57
2023-04-22T12:25:48.592Z,27.56
2023-04-22T12:26:48.660Z,27.56
2023-04-22T12:27:48.733Z,27.56
2023-04-22T12:28:48.779Z,27.54
2023-04-22T12:29:48.818Z,27.52
2023-04-22T12:30:48.883Z,27.52
2023-04-22T12:31:48.937Z,27.51
2023-04-22T12:32:48.983Z,27.51
2023-04-22T12:33:49.135Z,27.50
2023-04-22T12:34:49.105Z,27.49
2023-04-22T12:35:49.141Z,27.49
2023-04-22T12:36:49.196Z,27.50
2023-04-22T12:37:50.509Z,27.46
2023-04-22T12:38:49.298Z,27.47
2023-04-22T12:39:49.340Z,27.46
2023-04-22T12:40:49.404Z,27.46
2023-04-22T12:41:51.151Z,27.41
2023-04-22T12:42:49.487Z,27.44
2023-04-22T12:43:49.538Z,27.41
2023-04-22T12:44:49.595Z,27.42
2023-04-22T12:45:49.670Z,27.38
2023-04-22T12:46:49.719Z,27.38
2023-04-22T12:47:49.768Z,27.37
2023-04-22T12:48:49.778Z,27.35
2023-04-22T12:49:49.813Z,27.34
2023-04-22T12:50:49.849Z,27.33
2023-04-22T12:51:49.913Z,27.31
2023-04-22T12:52:49.954Z,27.30